Arnoldsburg, West Virginia
Current Conditions -  °F | °C
As of 1:10 PM on Tuesday 21 Oct 2014 (Local Time) from KCRW Reporting Station
Moderate Rain Moderate Rain  
Wind Chill: 53°   Ceiling: 1600
Heat Index: 53°   Visibility: 2mi
Dew Point: 48°   Wind: 7mph
Humidity: 83%   Direction: NA
Pressure: 29.95"   Gusts: 22mph
Location:  38.79°N, 81.13°W
Report Text: KCRW 211710Z VRB06G19KT 2SM RA FEW008 BKN016 OVC050 12/09 A2995 RMK AO2 P0001 T01170089
Loading
Personal Weather Stations






























Interactive Weather Map
Tropical Storm Tracking
New forecast layout! Learn more

10-Day Weather Forecast

Advertisements
Track Severe Weather on mobile